sensor_id;sensor_type;location;lat;lon;timestamp;P1;durP1;ratioP1;P2;durP2;ratioP2
29788;SDS011;64899;42.660;23.268;2023-11-21T00:00:43;40.63;;;18.13;;
29788;SDS011;64899;42.660;23.268;2023-11-21T00:03:10;37.78;;;19.65;;
29788;SDS011;64899;42.660;23.268;2023-11-21T00:05:36;33.85;;;17.25;;
29788;SDS011;64899;42.660;23.268;2023-11-21T00:08:01;37.65;;;18.05;;
29788;SDS011;64899;42.660;23.268;2023-11-21T00:10:27;32.47;;;16.65;;
29788;SDS011;64899;42.660;23.268;2023-11-21T00:12:53;33.35;;;17.70;;
29788;SDS011;64899;42.660;23.268;2023-11-21T00:15:20;32.92;;;16.92;;
29788;SDS011;64899;42.660;23.268;2023-11-21T00:17:45;33.35;;;16.52;;
29788;SDS011;64899;42.660;23.268;2023-11-21T00:20:11;34.92;;;15.50;;
29788;SDS011;64899;42.660;23.268;2023-11-21T00:22:38;32.70;;;15.73;;
29788;SDS011;64899;42.660;23.268;2023-11-21T00:25:05;31.92;;;17.25;;
29788;SDS011;64899;42.660;23.268;2023-11-21T00:27:31;35.70;;;17.30;;
29788;SDS011;64899;42.660;23.268;2023-11-21T00:29:56;29.90;;;16.50;;
29788;SDS011;64899;42.660;23.268;2023-11-21T00:32:22;29.95;;;15.90;;
29788;SDS011;64899;42.660;23.268;2023-11-21T00:34:47;29.65;;;15.93;;
29788;SDS011;64899;42.660;23.268;2023-11-21T00:37:13;29.33;;;15.90;;
29788;SDS011;64899;42.660;23.268;2023-11-21T00:39:39;31.52;;;14.70;;
29788;SDS011;64899;42.660;23.268;2023-11-21T00:42:05;25.40;;;14.73;;
29788;SDS011;64899;42.660;23.268;2023-11-21T00:44:30;29.88;;;15.10;;
29788;SDS011;64899;42.660;23.268;2023-11-21T00:46:56;27.40;;;14.82;;
29788;SDS011;64899;42.660;23.268;2023-11-21T00:49:21;26.52;;;13.65;;
29788;SDS011;64899;42.660;23.268;2023-11-21T00:51:46;23.90;;;13.60;;
29788;SDS011;64899;42.660;23.268;2023-11-21T00:54:12;30.17;;;14.50;;
29788;SDS011;64899;42.660;23.268;2023-11-21T00:56:37;27.75;;;13.00;;
29788;SDS011;64899;42.660;23.268;2023-11-21T00:59:03;27.17;;;15.13;;
29788;SDS011;64899;42.660;23.268;2023-11-21T01:01:30;31.95;;;15.82;;
29788;SDS011;64899;42.660;23.268;2023-11-21T01:03:55;32.05;;;16.77;;
29788;SDS011;64899;42.660;23.268;2023-11-21T01:06:20;34.42;;;16.08;;
29788;SDS011;64899;42.660;23.268;2023-11-21T01:08:46;30.05;;;15.43;;
29788;SDS011;64899;42.660;23.268;2023-11-21T01:11:11;29.25;;;14.80;;
29788;SDS011;64899;42.660;23.268;2023-11-21T01:13:40;33.15;;;15.68;;
29788;SDS011;64899;42.660;23.268;2023-11-21T01:16:07;32.50;;;14.63;;
29788;SDS011;64899;42.660;23.268;2023-11-21T01:18:33;32.85;;;15.55;;
29788;SDS011;64899;42.660;23.268;2023-11-21T01:21:00;31.30;;;15.30;;
29788;SDS011;64899;42.660;23.268;2023-11-21T01:23:25;31.65;;;15.57;;
29788;SDS011;64899;42.660;23.268;2023-11-21T01:25:51;32.50;;;15.25;;
29788;SDS011;64899;42.660;23.268;2023-11-21T01:28:17;30.65;;;15.95;;
29788;SDS011;64899;42.660;23.268;2023-11-21T01:30:42;31.25;;;16.23;;
29788;SDS011;64899;42.660;23.268;2023-11-21T01:33:09;28.17;;;14.18;;
29788;SDS011;64899;42.660;23.268;2023-11-21T01:35:35;30.67;;;14.07;;
29788;SDS011;64899;42.660;23.268;2023-11-21T01:38:00;28.95;;;14.23;;
29788;SDS011;64899;42.660;23.268;2023-11-21T01:40:26;26.80;;;13.90;;
29788;SDS011;64899;42.660;23.268;2023-11-21T01:42:52;26.55;;;14.60;;
29788;SDS011;64899;42.660;23.268;2023-11-21T01:45:18;26.50;;;14.30;;
29788;SDS011;64899;42.660;23.268;2023-11-21T01:47:44;26.55;;;13.93;;
29788;SDS011;64899;42.660;23.268;2023-11-21T01:50:13;25.27;;;13.73;;
29788;SDS011;64899;42.660;23.268;2023-11-21T01:52:41;26.65;;;14.00;;
29788;SDS011;64899;42.660;23.268;2023-11-21T01:55:07;25.35;;;13.65;;
29788;SDS011;64899;42.660;23.268;2023-11-21T01:57:37;24.48;;;12.77;;
29788;SDS011;64899;42.660;23.268;2023-11-21T02:00:02;26.02;;;13.63;;
29788;SDS011;64899;42.660;23.268;2023-11-21T02:02:43;23.50;;;13.50;;
29788;SDS011;64899;42.660;23.268;2023-11-21T02:05:16;27.67;;;14.32;;
29788;SDS011;64899;42.660;23.268;2023-11-21T02:07:45;26.27;;;14.18;;
29788;SDS011;64899;42.660;23.268;2023-11-21T02:10:13;29.38;;;15.13;;
29788;SDS011;64899;42.660;23.268;2023-11-21T02:12:42;27.85;;;13.63;;
29788;SDS011;64899;42.660;23.268;2023-11-21T02:15:12;26.58;;;14.07;;
29788;SDS011;64899;42.660;23.268;2023-11-21T02:17:45;26.55;;;14.65;;
29788;SDS011;64899;42.660;23.268;2023-11-21T02:20:11;28.50;;;15.55;;
29788;SDS011;64899;42.660;23.268;2023-11-21T02:22:40;27.45;;;14.45;;
29788;SDS011;64899;42.660;23.268;2023-11-21T02:25:07;29.52;;;14.35;;
29788;SDS011;64899;42.660;23.268;2023-11-21T02:27:33;28.20;;;15.35;;
29788;SDS011;64899;42.660;23.268;2023-11-21T02:29:58;26.55;;;14.68;;
29788;SDS011;64899;42.660;23.268;2023-11-21T02:32:25;28.98;;;14.10;;
29788;SDS011;64899;42.660;23.268;2023-11-21T02:34:51;33.08;;;15.13;;
29788;SDS011;64899;42.660;23.268;2023-11-21T02:37:16;26.52;;;14.27;;
29788;SDS011;64899;42.660;23.268;2023-11-21T02:39:42;26.52;;;14.23;;
29788;SDS011;64899;42.660;23.268;2023-11-21T02:42:08;29.02;;;15.07;;
29788;SDS011;64899;42.660;23.268;2023-11-21T02:44:33;22.70;;;14.30;;
29788;SDS011;64899;42.660;23.268;2023-11-21T02:46:59;24.33;;;13.95;;
29788;SDS011;64899;42.660;23.268;2023-11-21T02:49:25;23.20;;;14.85;;
29788;SDS011;64899;42.660;23.268;2023-11-21T02:51:53;26.52;;;13.85;;
29788;SDS011;64899;42.660;23.268;2023-11-21T02:54:19;26.13;;;13.30;;
29788;SDS011;64899;42.660;23.268;2023-11-21T02:56:46;21.05;;;11.57;;
29788;SDS011;64899;42.660;23.268;2023-11-21T02:59:12;22.40;;;13.95;;
29788;SDS011;64899;42.660;23.268;2023-11-21T03:01:37;28.55;;;14.45;;
29788;SDS011;64899;42.660;23.268;2023-11-21T03:04:03;25.27;;;12.82;;
29788;SDS011;64899;42.660;23.268;2023-11-21T03:06:28;26.42;;;13.25;;
29788;SDS011;64899;42.660;23.268;2023-11-21T03:08:54;19.75;;;12.50;;
29788;SDS011;64899;42.660;23.268;2023-11-21T03:11:19;24.02;;;12.88;;
29788;SDS011;64899;42.660;23.268;2023-11-21T03:13:45;27.38;;;13.02;;
29788;SDS011;64899;42.660;23.268;2023-11-21T03:16:10;21.63;;;12.30;;
29788;SDS011;64899;42.660;23.268;2023-11-21T03:18:39;27.25;;;13.93;;
29788;SDS011;64899;42.660;23.268;2023-11-21T03:21:05;28.30;;;15.60;;
29788;SDS011;64899;42.660;23.268;2023-11-21T03:23:33;28.77;;;13.57;;
29788;SDS011;64899;42.660;23.268;2023-11-21T03:25:59;25.55;;;14.57;;
29788;SDS011;64899;42.660;23.268;2023-11-21T03:28:25;29.25;;;15.00;;
29788;SDS011;64899;42.660;23.268;2023-11-21T03:30:51;26.95;;;14.80;;
29788;SDS011;64899;42.660;23.268;2023-11-21T03:33:17;25.02;;;13.18;;
29788;SDS011;64899;42.660;23.268;2023-11-21T03:35:42;24.92;;;13.27;;
29788;SDS011;64899;42.660;23.268;2023-11-21T03:38:10;25.85;;;14.90;;
29788;SDS011;64899;42.660;23.268;2023-11-21T03:40:35;25.67;;;13.65;;
29788;SDS011;64899;42.660;23.268;2023-11-21T03:43:01;23.30;;;13.43;;
29788;SDS011;64899;42.660;23.268;2023-11-21T03:45:26;25.95;;;14.50;;
29788;SDS011;64899;42.660;23.268;2023-11-21T03:47:51;21.02;;;13.45;;
29788;SDS011;64899;42.660;23.268;2023-11-21T03:50:17;24.70;;;13.13;;
29788;SDS011;64899;42.660;23.268;2023-11-21T03:52:42;26.45;;;13.27;;
29788;SDS011;64899;42.660;23.268;2023-11-21T03:55:08;27.77;;;13.05;;
29788;SDS011;64899;42.660;23.268;2023-11-21T03:57:33;25.90;;;14.80;;
29788;SDS011;64899;42.660;23.268;2023-11-21T03:59:59;26.33;;;14.27;;
29788;SDS011;64899;42.660;23.268;2023-11-21T04:02:24;25.30;;;13.73;;
29788;SDS011;64899;42.660;23.268;2023-11-21T04:04:53;25.58;;;15.75;;
29788;SDS011;64899;42.660;23.268;2023-11-21T04:07:18;27.20;;;14.73;;
29788;SDS011;64899;42.660;23.268;2023-11-21T04:09:44;28.30;;;15.70;;
29788;SDS011;64899;42.660;23.268;2023-11-21T04:12:09;29.73;;;16.02;;
29788;SDS011;64899;42.660;23.268;2023-11-21T04:14:34;27.30;;;16.05;;
29788;SDS011;64899;42.660;23.268;2023-11-21T04:17:00;28.63;;;16.55;;
29788;SDS011;64899;42.660;23.268;2023-11-21T04:19:25;32.28;;;16.98;;
29788;SDS011;64899;42.660;23.268;2023-11-21T04:21:51;32.60;;;16.20;;
29788;SDS011;64899;42.660;23.268;2023-11-21T04:24:16;33.97;;;17.88;;
29788;SDS011;64899;42.660;23.268;2023-11-21T04:26:41;28.02;;;16.05;;
29788;SDS011;64899;42.660;23.268;2023-11-21T04:29:07;31.95;;;16.63;;
29788;SDS011;64899;42.660;23.268;2023-11-21T04:31:32;31.60;;;16.40;;
29788;SDS011;64899;42.660;23.268;2023-11-21T04:33:58;29.38;;;17.02;;
29788;SDS011;64899;42.660;23.268;2023-11-21T04:36:23;30.50;;;17.00;;
29788;SDS011;64899;42.660;23.268;2023-11-21T04:38:48;33.92;;;17.52;;
29788;SDS011;64899;42.660;23.268;2023-11-21T04:41:14;31.10;;;16.50;;
29788;SDS011;64899;42.660;23.268;2023-11-21T04:43:39;32.40;;;17.27;;
29788;SDS011;64899;42.660;23.268;2023-11-21T04:46:05;32.85;;;17.38;;
29788;SDS011;64899;42.660;23.268;2023-11-21T04:48:31;33.83;;;17.60;;
29788;SDS011;64899;42.660;23.268;2023-11-21T04:50:57;31.27;;;17.45;;
29788;SDS011;64899;42.660;23.268;2023-11-21T04:53:23;32.00;;;17.17;;
29788;SDS011;64899;42.660;23.268;2023-11-21T04:55:48;33.85;;;18.67;;
29788;SDS011;64899;42.660;23.268;2023-11-21T04:58:14;33.03;;;16.90;;
29788;SDS011;64899;42.660;23.268;2023-11-21T05:00:39;35.13;;;18.20;;
29788;SDS011;64899;42.660;23.268;2023-11-21T05:03:06;28.17;;;15.88;;
29788;SDS011;64899;42.660;23.268;2023-11-21T05:05:32;32.22;;;16.77;;
29788;SDS011;64899;42.660;23.268;2023-11-21T05:07:59;32.83;;;16.77;;
29788;SDS011;64899;42.660;23.268;2023-11-21T05:10:24;30.30;;;17.38;;
29788;SDS011;64899;42.660;23.268;2023-11-21T05:12:50;36.53;;;17.52;;
29788;SDS011;64899;42.660;23.268;2023-11-21T05:15:15;32.78;;;17.15;;
29788;SDS011;64899;42.660;23.268;2023-11-21T05:17:42;33.05;;;16.80;;
29788;SDS011;64899;42.660;23.268;2023-11-21T05:20:12;33.60;;;17.08;;
29788;SDS011;64899;42.660;23.268;2023-11-21T05:22:39;32.47;;;17.73;;
29788;SDS011;64899;42.660;23.268;2023-11-21T05:25:05;36.40;;;17.75;;
29788;SDS011;64899;42.660;23.268;2023-11-21T05:27:33;36.28;;;18.73;;
29788;SDS011;64899;42.660;23.268;2023-11-21T05:29:59;36.88;;;17.75;;
29788;SDS011;64899;42.660;23.268;2023-11-21T05:32:24;31.48;;;16.90;;
29788;SDS011;64899;42.660;23.268;2023-11-21T05:34:50;36.30;;;19.25;;
29788;SDS011;64899;42.660;23.268;2023-11-21T05:37:15;30.33;;;18.52;;
29788;SDS011;64899;42.660;23.268;2023-11-21T05:39:42;36.33;;;19.45;;
29788;SDS011;64899;42.660;23.268;2023-11-21T05:42:07;34.35;;;18.33;;
29788;SDS011;64899;42.660;23.268;2023-11-21T05:44:35;32.85;;;16.77;;
29788;SDS011;64899;42.660;23.268;2023-11-21T05:47:01;39.80;;;18.27;;
29788;SDS011;64899;42.660;23.268;2023-11-21T05:49:26;35.03;;;17.60;;
29788;SDS011;64899;42.660;23.268;2023-11-21T05:51:52;33.90;;;17.58;;
29788;SDS011;64899;42.660;23.268;2023-11-21T05:54:19;35.60;;;19.63;;
29788;SDS011;64899;42.660;23.268;2023-11-21T05:56:44;35.38;;;16.48;;
29788;SDS011;64899;42.660;23.268;2023-11-21T05:59:10;34.47;;;16.90;;
29788;SDS011;64899;42.660;23.268;2023-11-21T06:01:35;31.13;;;18.25;;
29788;SDS011;64899;42.660;23.268;2023-11-21T06:04:03;33.22;;;19.48;;
29788;SDS011;64899;42.660;23.268;2023-11-21T06:06:29;35.22;;;18.08;;
29788;SDS011;64899;42.660;23.268;2023-11-21T06:08:56;31.45;;;17.35;;
29788;SDS011;64899;42.660;23.268;2023-11-21T06:11:21;36.08;;;17.33;;
29788;SDS011;64899;42.660;23.268;2023-11-21T06:13:46;35.58;;;19.02;;
29788;SDS011;64899;42.660;23.268;2023-11-21T06:16:13;37.13;;;17.98;;
29788;SDS011;64899;42.660;23.268;2023-11-21T06:18:41;37.33;;;20.33;;
29788;SDS011;64899;42.660;23.268;2023-11-21T06:21:09;43.50;;;22.35;;
29788;SDS011;64899;42.660;23.268;2023-11-21T06:23:34;44.80;;;22.67;;
29788;SDS011;64899;42.660;23.268;2023-11-21T06:26:00;40.33;;;21.13;;
29788;SDS011;64899;42.660;23.268;2023-11-21T06:28:25;48.70;;;23.27;;
29788;SDS011;64899;42.660;23.268;2023-11-21T06:30:51;44.63;;;24.80;;
29788;SDS011;64899;42.660;23.268;2023-11-21T06:33:16;46.35;;;25.50;;
29788;SDS011;64899;42.660;23.268;2023-11-21T06:35:41;54.58;;;26.95;;
29788;SDS011;64899;42.660;23.268;2023-11-21T06:38:07;54.90;;;29.10;;
29788;SDS011;64899;42.660;23.268;2023-11-21T06:40:34;59.05;;;29.38;;
29788;SDS011;64899;42.660;23.268;2023-11-21T06:42:59;56.33;;;29.10;;
29788;SDS011;64899;42.660;23.268;2023-11-21T06:45:25;55.42;;;29.10;;
29788;SDS011;64899;42.660;23.268;2023-11-21T06:47:51;62.10;;;29.45;;
29788;SDS011;64899;42.660;23.268;2023-11-21T06:50:16;60.15;;;30.85;;
29788;SDS011;64899;42.660;23.268;2023-11-21T06:52:42;52.83;;;31.25;;
29788;SDS011;64899;42.660;23.268;2023-11-21T06:55:08;57.00;;;31.35;;
29788;SDS011;64899;42.660;23.268;2023-11-21T06:57:34;52.38;;;31.17;;
29788;SDS011;64899;42.660;23.268;2023-11-21T07:00:00;54.67;;;31.50;;
29788;SDS011;64899;42.660;23.268;2023-11-21T07:02:26;65.80;;;31.60;;
29788;SDS011;64899;42.660;23.268;2023-11-21T07:04:51;54.70;;;29.55;;
29788;SDS011;64899;42.660;23.268;2023-11-21T07:07:17;49.65;;;28.95;;
29788;SDS011;64899;42.660;23.268;2023-11-21T07:09:44;52.88;;;29.25;;
29788;SDS011;64899;42.660;23.268;2023-11-21T07:12:09;54.40;;;29.35;;
29788;SDS011;64899;42.660;23.268;2023-11-21T07:14:36;58.72;;;30.23;;
29788;SDS011;64899;42.660;23.268;2023-11-21T07:17:02;55.33;;;30.13;;
29788;SDS011;64899;42.660;23.268;2023-11-21T07:19:28;57.25;;;29.02;;
29788;SDS011;64899;42.660;23.268;2023-11-21T07:21:54;53.17;;;28.45;;
29788;SDS011;64899;42.660;23.268;2023-11-21T07:24:20;49.20;;;27.60;;
29788;SDS011;64899;42.660;23.268;2023-11-21T07:26:46;48.55;;;28.05;;
29788;SDS011;64899;42.660;23.268;2023-11-21T07:29:13;51.42;;;27.85;;
29788;SDS011;64899;42.660;23.268;2023-11-21T07:31:38;47.40;;;27.05;;
29788;SDS011;64899;42.660;23.268;2023-11-21T07:34:03;47.60;;;25.92;;
29788;SDS011;64899;42.660;23.268;2023-11-21T07:36:29;51.10;;;27.25;;
29788;SDS011;64899;42.660;23.268;2023-11-21T07:38:54;47.55;;;25.77;;
29788;SDS011;64899;42.660;23.268;2023-11-21T07:41:20;48.70;;;25.88;;
29788;SDS011;64899;42.660;23.268;2023-11-21T07:43:45;47.33;;;25.23;;
29788;SDS011;64899;42.660;23.268;2023-11-21T07:46:11;50.00;;;25.60;;
29788;SDS011;64899;42.660;23.268;2023-11-21T07:48:40;46.63;;;24.25;;
29788;SDS011;64899;42.660;23.268;2023-11-21T07:51:07;47.85;;;25.85;;
29788;SDS011;64899;42.660;23.268;2023-11-21T07:53:33;47.75;;;27.27;;
29788;SDS011;64899;42.660;23.268;2023-11-21T07:56:03;46.78;;;26.15;;
29788;SDS011;64899;42.660;23.268;2023-11-21T07:58:29;45.20;;;25.48;;
29788;SDS011;64899;42.660;23.268;2023-11-21T08:00:54;48.85;;;25.33;;
29788;SDS011;64899;42.660;23.268;2023-11-21T08:03:19;40.55;;;25.05;;
29788;SDS011;64899;42.660;23.268;2023-11-21T08:05:46;52.78;;;24.35;;
29788;SDS011;64899;42.660;23.268;2023-11-21T08:08:11;44.10;;;23.05;;
29788;SDS011;64899;42.660;23.268;2023-11-21T08:10:37;42.65;;;21.63;;
29788;SDS011;64899;42.660;23.268;2023-11-21T08:13:02;40.88;;;21.85;;
29788;SDS011;64899;42.660;23.268;2023-11-21T08:15:28;42.88;;;22.35;;
29788;SDS011;64899;42.660;23.268;2023-11-21T08:17:54;39.97;;;22.23;;
29788;SDS011;64899;42.660;23.268;2023-11-21T08:20:19;42.28;;;22.08;;
29788;SDS011;64899;42.660;23.268;2023-11-21T08:22:47;42.35;;;22.85;;
29788;SDS011;64899;42.660;23.268;2023-11-21T08:25:13;39.28;;;21.92;;
29788;SDS011;64899;42.660;23.268;2023-11-21T08:27:38;39.58;;;23.05;;
29788;SDS011;64899;42.660;23.268;2023-11-21T08:30:04;44.17;;;23.48;;
29788;SDS011;64899;42.660;23.268;2023-11-21T08:32:30;46.85;;;23.88;;
29788;SDS011;64899;42.660;23.268;2023-11-21T08:34:57;45.00;;;21.88;;
29788;SDS011;64899;42.660;23.268;2023-11-21T08:37:23;45.72;;;23.75;;
29788;SDS011;64899;42.660;23.268;2023-11-21T08:39:48;38.70;;;22.42;;
29788;SDS011;64899;42.660;23.268;2023-11-21T08:42:14;39.40;;;22.48;;
29788;SDS011;64899;42.660;23.268;2023-11-21T08:44:40;44.78;;;23.70;;
29788;SDS011;64899;42.660;23.268;2023-11-21T08:47:05;44.90;;;23.65;;
29788;SDS011;64899;42.660;23.268;2023-11-21T08:49:31;45.03;;;24.02;;
29788;SDS011;64899;42.660;23.268;2023-11-21T08:51:57;48.47;;;24.23;;
29788;SDS011;64899;42.660;23.268;2023-11-21T08:54:24;53.00;;;24.45;;
29788;SDS011;64899;42.660;23.268;2023-11-21T08:56:51;42.25;;;23.70;;
29788;SDS011;64899;42.660;23.268;2023-11-21T08:59:17;43.80;;;23.38;;
29788;SDS011;64899;42.660;23.268;2023-11-21T09:01:42;44.13;;;22.33;;
29788;SDS011;64899;42.660;23.268;2023-11-21T09:04:07;43.70;;;22.90;;
29788;SDS011;64899;42.660;23.268;2023-11-21T09:06:33;38.38;;;22.23;;
29788;SDS011;64899;42.660;23.268;2023-11-21T09:08:58;41.17;;;21.35;;
29788;SDS011;64899;42.660;23.268;2023-11-21T09:11:24;46.35;;;23.38;;
29788;SDS011;64899;42.660;23.268;2023-11-21T09:13:50;46.88;;;23.15;;
29788;SDS011;64899;42.660;23.268;2023-11-21T09:16:16;41.88;;;23.55;;
29788;SDS011;64899;42.660;23.268;2023-11-21T09:18:41;38.85;;;21.80;;
29788;SDS011;64899;42.660;23.268;2023-11-21T09:21:07;40.67;;;21.40;;
29788;SDS011;64899;42.660;23.268;2023-11-21T09:23:33;37.20;;;19.77;;
29788;SDS011;64899;42.660;23.268;2023-11-21T09:25:59;34.10;;;19.58;;
29788;SDS011;64899;42.660;23.268;2023-11-21T09:28:25;32.10;;;18.08;;
29788;SDS011;64899;42.660;23.268;2023-11-21T09:30:52;37.25;;;17.50;;
29788;SDS011;64899;42.660;23.268;2023-11-21T09:33:18;37.88;;;17.55;;
29788;SDS011;64899;42.660;23.268;2023-11-21T09:35:43;31.75;;;16.83;;
29788;SDS011;64899;42.660;23.268;2023-11-21T09:38:09;34.95;;;15.48;;
29788;SDS011;64899;42.660;23.268;2023-11-21T09:40:35;27.55;;;15.75;;
29788;SDS011;64899;42.660;23.268;2023-11-21T09:43:03;30.63;;;16.10;;
29788;SDS011;64899;42.660;23.268;2023-11-21T09:45:46;27.65;;;14.95;;
29788;SDS011;64899;42.660;23.268;2023-11-21T09:48:13;27.05;;;14.10;;
29788;SDS011;64899;42.660;23.268;2023-11-21T09:50:39;26.52;;;15.13;;
29788;SDS011;64899;42.660;23.268;2023-11-21T09:53:13;23.17;;;13.52;;
29788;SDS011;64899;42.660;23.268;2023-11-21T09:55:44;25.50;;;13.60;;
29788;SDS011;64899;42.660;23.268;2023-11-21T09:58:11;29.33;;;15.07;;
29788;SDS011;64899;42.660;23.268;2023-11-21T10:00:39;33.25;;;16.08;;
29788;SDS011;64899;42.660;23.268;2023-11-21T10:03:05;34.88;;;16.02;;
29788;SDS011;64899;42.660;23.268;2023-11-21T10:05:30;29.35;;;15.13;;
29788;SDS011;64899;42.660;23.268;2023-11-21T10:07:59;30.88;;;14.38;;
29788;SDS011;64899;42.660;23.268;2023-11-21T10:10:24;24.67;;;12.85;;
29788;SDS011;64899;42.660;23.268;2023-11-21T10:12:51;25.65;;;13.77;;
29788;SDS011;64899;42.660;23.268;2023-11-21T10:15:23;31.38;;;13.70;;
29788;SDS011;64899;42.660;23.268;2023-11-21T10:17:52;22.50;;;12.23;;
29788;SDS011;64899;42.660;23.268;2023-11-21T10:20:19;22.50;;;11.02;;
29788;SDS011;64899;42.660;23.268;2023-11-21T10:22:44;22.73;;;11.60;;
29788;SDS011;64899;42.660;23.268;2023-11-21T10:25:10;25.95;;;11.55;;
29788;SDS011;64899;42.660;23.268;2023-11-21T10:27:39;18.05;;;11.45;;
29788;SDS011;64899;42.660;23.268;2023-11-21T10:30:05;26.25;;;12.48;;
29788;SDS011;64899;42.660;23.268;2023-11-21T10:32:32;25.70;;;12.13;;
29788;SDS011;64899;42.660;23.268;2023-11-21T10:35:01;23.10;;;11.85;;
29788;SDS011;64899;42.660;23.268;2023-11-21T10:39:57;30.83;;;12.43;;
29788;SDS011;64899;42.660;23.268;2023-11-21T10:42:23;26.20;;;13.00;;
29788;SDS011;64899;42.660;23.268;2023-11-21T10:44:49;25.38;;;11.00;;
29788;SDS011;64899;42.660;23.268;2023-11-21T10:47:15;21.08;;;11.73;;
29788;SDS011;64899;42.660;23.268;2023-11-21T10:49:44;19.73;;;12.10;;
29788;SDS011;64899;42.660;23.268;2023-11-21T10:52:10;21.02;;;11.52;;
29788;SDS011;64899;42.660;23.268;2023-11-21T10:54:42;21.80;;;11.93;;
29788;SDS011;64899;42.660;23.268;2023-11-21T10:57:07;19.65;;;13.18;;
29788;SDS011;64899;42.660;23.268;2023-11-21T10:59:33;19.67;;;12.15;;
29788;SDS011;64899;42.660;23.268;2023-11-21T11:01:59;23.90;;;12.10;;
29788;SDS011;64899;42.660;23.268;2023-11-21T11:04:27;25.17;;;12.90;;
29788;SDS011;64899;42.660;23.268;2023-11-21T11:07:01;28.27;;;14.90;;
29788;SDS011;64899;42.660;23.268;2023-11-21T11:09:28;22.27;;;13.13;;
29788;SDS011;64899;42.660;23.268;2023-11-21T11:11:55;24.23;;;13.23;;
29788;SDS011;64899;42.660;23.268;2023-11-21T11:14:21;26.67;;;14.80;;
29788;SDS011;64899;42.660;23.268;2023-11-21T11:16:50;28.35;;;15.57;;
29788;SDS011;64899;42.660;23.268;2023-11-21T11:19:18;24.20;;;14.70;;
29788;SDS011;64899;42.660;23.268;2023-11-21T11:30:11;32.30;;;16.33;;
29788;SDS011;64899;42.660;23.268;2023-11-21T11:35:24;36.95;;;18.70;;
29788;SDS011;64899;42.660;23.268;2023-11-21T11:37:53;39.35;;;18.60;;
29788;SDS011;64899;42.660;23.268;2023-11-21T11:40:19;31.92;;;19.52;;
29788;SDS011;64899;42.660;23.268;2023-11-21T11:43:01;40.60;;;20.10;;
29788;SDS011;64899;42.660;23.268;2023-11-21T11:45:33;35.03;;;19.15;;
29788;SDS011;64899;42.660;23.268;2023-11-21T11:48:00;30.70;;;18.85;;
29788;SDS011;64899;42.660;23.268;2023-11-21T11:50:26;34.42;;;18.73;;
29788;SDS011;64899;42.660;23.268;2023-11-21T11:52:52;34.13;;;19.92;;
29788;SDS011;64899;42.660;23.268;2023-11-21T11:55:22;34.25;;;19.02;;
29788;SDS011;64899;42.660;23.268;2023-11-21T11:57:50;29.80;;;19.95;;
29788;SDS011;64899;42.660;23.268;2023-11-21T12:02:54;32.30;;;18.58;;
29788;SDS011;64899;42.660;23.268;2023-11-21T12:05:24;31.58;;;17.15;;
29788;SDS011;64899;42.660;23.268;2023-11-21T12:07:56;28.33;;;16.27;;
29788;SDS011;64899;42.660;23.268;2023-11-21T12:10:29;26.05;;;15.77;;
29788;SDS011;64899;42.660;23.268;2023-11-21T12:12:56;29.38;;;16.58;;
29788;SDS011;64899;42.660;23.268;2023-11-21T12:15:22;26.98;;;17.17;;
29788;SDS011;64899;42.660;23.268;2023-11-21T12:17:48;33.58;;;17.17;;
29788;SDS011;64899;42.660;23.268;2023-11-21T12:20:15;38.08;;;20.20;;
29788;SDS011;64899;42.660;23.268;2023-11-21T12:25:18;38.75;;;20.63;;
29788;SDS011;64899;42.660;23.268;2023-11-21T12:27:46;39.67;;;22.48;;
29788;SDS011;64899;42.660;23.268;2023-11-21T12:32:45;42.60;;;23.73;;
29788;SDS011;64899;42.660;23.268;2023-11-21T12:35:13;41.20;;;26.58;;
29788;SDS011;64899;42.660;23.268;2023-11-21T12:37:39;46.75;;;26.50;;
29788;SDS011;64899;42.660;23.268;2023-11-21T12:40:06;49.00;;;25.52;;
29788;SDS011;64899;42.660;23.268;2023-11-21T12:42:33;51.75;;;27.67;;
29788;SDS011;64899;42.660;23.268;2023-11-21T12:45:08;47.83;;;28.13;;
29788;SDS011;64899;42.660;23.268;2023-11-21T12:47:43;54.13;;;30.65;;
29788;SDS011;64899;42.660;23.268;2023-11-21T12:50:09;56.05;;;30.10;;
29788;SDS011;64899;42.660;23.268;2023-11-21T12:52:42;53.72;;;30.75;;
29788;SDS011;64899;42.660;23.268;2023-11-21T12:55:13;57.38;;;31.35;;
29788;SDS011;64899;42.660;23.268;2023-11-21T12:57:42;50.08;;;31.63;;
29788;SDS011;64899;42.660;23.268;2023-11-21T13:00:08;58.95;;;32.65;;
29788;SDS011;64899;42.660;23.268;2023-11-21T13:02:38;57.22;;;32.95;;
29788;SDS011;64899;42.660;23.268;2023-11-21T13:05:07;56.80;;;34.55;;
29788;SDS011;64899;42.660;23.268;2023-11-21T13:07:41;53.15;;;32.78;;
29788;SDS011;64899;42.660;23.268;2023-11-21T13:10:12;49.25;;;30.65;;
29788;SDS011;64899;42.660;23.268;2023-11-21T13:12:44;56.38;;;32.17;;
29788;SDS011;64899;42.660;23.268;2023-11-21T13:15:13;52.67;;;30.13;;
29788;SDS011;64899;42.660;23.268;2023-11-21T13:17:42;48.60;;;28.98;;
29788;SDS011;64899;42.660;23.268;2023-11-21T13:20:11;48.90;;;29.33;;
29788;SDS011;64899;42.660;23.268;2023-11-21T13:22:52;48.33;;;28.02;;
29788;SDS011;64899;42.660;23.268;2023-11-21T13:25:30;48.78;;;28.88;;
29788;SDS011;64899;42.660;23.268;2023-11-21T13:27:59;59.25;;;29.42;;
29788;SDS011;64899;42.660;23.268;2023-11-21T13:30:25;51.63;;;29.95;;
29788;SDS011;64899;42.660;23.268;2023-11-21T13:32:52;53.63;;;30.38;;
29788;SDS011;64899;42.660;23.268;2023-11-21T13:35:18;51.58;;;29.60;;
29788;SDS011;64899;42.660;23.268;2023-11-21T13:37:55;47.35;;;30.35;;
29788;SDS011;64899;42.660;23.268;2023-11-21T13:40:24;49.67;;;30.65;;
29788;SDS011;64899;42.660;23.268;2023-11-21T13:42:53;52.10;;;30.85;;
29788;SDS011;64899;42.660;23.268;2023-11-21T13:45:20;55.92;;;31.20;;
29788;SDS011;64899;42.660;23.268;2023-11-21T13:47:48;53.88;;;31.45;;
29788;SDS011;64899;42.660;23.268;2023-11-21T13:50:17;51.10;;;31.35;;
29788;SDS011;64899;42.660;23.268;2023-11-21T13:52:48;54.55;;;34.53;;
29788;SDS011;64899;42.660;23.268;2023-11-21T13:55:14;67.88;;;36.95;;
29788;SDS011;64899;42.660;23.268;2023-11-21T13:57:44;61.08;;;37.03;;
29788;SDS011;64899;42.660;23.268;2023-11-21T14:00:14;62.63;;;38.40;;
29788;SDS011;64899;42.660;23.268;2023-11-21T14:02:59;62.97;;;38.03;;
29788;SDS011;64899;42.660;23.268;2023-11-21T14:05:26;64.10;;;36.90;;
29788;SDS011;64899;42.660;23.268;2023-11-21T14:07:55;67.93;;;36.15;;
29788;SDS011;64899;42.660;23.268;2023-11-21T14:10:32;65.53;;;38.95;;
29788;SDS011;64899;42.660;23.268;2023-11-21T14:13:11;59.05;;;36.03;;
29788;SDS011;64899;42.660;23.268;2023-11-21T14:15:37;62.20;;;36.45;;
29788;SDS011;64899;42.660;23.268;2023-11-21T14:18:07;66.40;;;37.30;;
29788;SDS011;64899;42.660;23.268;2023-11-21T14:20:35;72.50;;;37.35;;
29788;SDS011;64899;42.660;23.268;2023-11-21T14:23:02;56.85;;;34.83;;
29788;SDS011;64899;42.660;23.268;2023-11-21T14:25:32;65.30;;;37.50;;
29788;SDS011;64899;42.660;23.268;2023-11-21T14:27:58;66.00;;;39.20;;